This is the latest recevied weather packets stored in our database for station/object DG4MND-4. If no packets are shown the sender has not sent any weather packets the latest 10 day(s).
| Time | Temp. | Humidity | Pressure | Rain* | Wind** | Luminosity | Snow |
|---|---|---|---|---|---|---|---|
| 1777695023 | 2.78° C | 94% | 1022.5 hPa | 0 mm | - | - | - |
| 1777694419 | 2.78° C | 93% | 1022.6 hPa | 0 mm | - | - | - |
| 1777693816 | 2.78° C | 93% | 1022.4 hPa | 0 mm | - | - | - |
| 1777693276 | 2.78° C | 93% | 1022.4 hPa | 0 mm | - | - | - |
| 1777692670 | 3.33° C | 93% | 1022.5 hPa | 0 mm | - | - | - |
| 1777692069 | 2.78° C | 93% | 1022.5 hPa | 0 mm | - | - | - |
| 1777691466 | 2.78° C | 92% | 1022.5 hPa | 0 mm | - | - | - |
| 1777690860 | 3.33° C | 92% | 1022.5 hPa | 0 mm | - | - | - |
| 1777690256 | 3.33° C | 93% | 1022.6 hPa | 0 mm | - | - | - |
| 1777689655 | 3.33° C | 92% | 1022.7 hPa | 0 mm | - | - | - |
| 1777689049 | 3.33° C | 93% | 1022.6 hPa | 0 mm | - | - | - |
| 1777688446 | 3.33° C | 91% | 1022.7 hPa | 0 mm | - | - | - |
| 1777687845 | 3.33° C | 91% | 1022.6 hPa | 0 mm | - | - | - |
| 1777671069 | 8.89° C | 70% | 1023.5 hPa | 0 mm | - | - | - |
| 1777670463 | 9.44° C | 68% | 1023.7 hPa | 0 mm | - | - | - |
| 1777669862 | 9.44° C | 67% | 1023.6 hPa | 0 mm | - | - | - |
| 1777669256 | 10° C | 65% | 1023.7 hPa | 0 mm | - | - | - |
| 1777668653 | 10.56° C | 63% | 1023.8 hPa | 0 mm | - | - | - |
| 1777666847 | 12.78° C | 54% | 1023.7 hPa | 0 mm | - | - | - |
| 1777666239 | 12.78° C | 53% | 1023.8 hPa | 0 mm | - | - | - |
| 1777665035 | 13.33° C | 52% | 1023.7 hPa | 0 mm | - | - | - |
| 1777664431 | 13.33° C | 53% | 1023.5 hPa | 0 mm | - | - | - |
| 1777663825 | 13.33° C | 52% | 1023.4 hPa | 0 mm | - | - | - |
| 1777663222 | 13.89° C | 50% | 1023.4 hPa | 0 mm | - | - | - |
| 1777662621 | 15° C | 48% | 1023.4 hPa | 0 mm | - | - | - |
* Rain latest hour (hover to see other rain measurements)
** Current wind speed in m/s (hover to see current wind gust speed)